sensor_id;sensor_type;location;lat;lon;timestamp;pressure;altitude;pressure_sealevel;temperature;humidity
84661;BME280;74889;52.240;20.902;2024-01-15T00:02:00;97943.39;;;1.81;84.91
84661;BME280;74889;52.240;20.902;2024-01-15T00:04:25;97940.84;;;1.82;84.94
84661;BME280;74889;52.240;20.902;2024-01-15T00:06:51;97943.55;;;1.83;85.03
84661;BME280;74889;52.240;20.902;2024-01-15T00:09:16;97943.13;;;1.84;85.17
84661;BME280;74889;52.240;20.902;2024-01-15T00:11:43;97933.98;;;1.84;85.03
84661;BME280;74889;52.240;20.902;2024-01-15T00:14:09;97924.16;;;1.83;84.80
84661;BME280;74889;52.240;20.902;2024-01-15T00:16:34;97917.38;;;1.83;84.73
84661;BME280;74889;52.240;20.902;2024-01-15T00:19:00;97911.55;;;1.83;84.77
84661;BME280;74889;52.240;20.902;2024-01-15T00:21:26;97909.11;;;1.84;84.86
84661;BME280;74889;52.240;20.902;2024-01-15T00:23:52;97899.81;;;1.84;85.02
84661;BME280;74889;52.240;20.902;2024-01-15T00:26:18;97899.91;;;1.83;84.93
84661;BME280;74889;52.240;20.902;2024-01-15T00:28:43;97891.76;;;1.83;84.72
84661;BME280;74889;52.240;20.902;2024-01-15T00:31:09;97889.88;;;1.83;84.73
84661;BME280;74889;52.240;20.902;2024-01-15T00:33:35;97887.19;;;1.83;84.91
84661;BME280;74889;52.240;20.902;2024-01-15T00:36:00;97883.85;;;1.83;84.88
84661;BME280;74889;52.240;20.902;2024-01-15T00:38:26;97878.45;;;1.84;84.80
84661;BME280;74889;52.240;20.902;2024-01-15T00:40:51;97874.06;;;1.84;84.58
84661;BME280;74889;52.240;20.902;2024-01-15T00:43:17;97869.59;;;1.85;84.84
84661;BME280;74889;52.240;20.902;2024-01-15T00:45:44;97869.06;;;1.84;84.51
84661;BME280;74889;52.240;20.902;2024-01-15T00:48:10;97865.58;;;1.84;84.62
84661;BME280;74889;52.240;20.902;2024-01-15T00:50:36;97863.52;;;1.85;84.68
84661;BME280;74889;52.240;20.902;2024-01-15T00:53:01;97860.16;;;1.86;84.71
84661;BME280;74889;52.240;20.902;2024-01-15T00:55:28;97857.48;;;1.86;84.80
84661;BME280;74889;52.240;20.902;2024-01-15T00:57:54;97858.55;;;1.86;84.77
84661;BME280;74889;52.240;20.902;2024-01-15T01:00:19;97858.34;;;1.84;84.71
84661;BME280;74889;52.240;20.902;2024-01-15T01:02:45;97855.12;;;1.83;84.73
84661;BME280;74889;52.240;20.902;2024-01-15T01:05:10;97849.96;;;1.82;84.61
84661;BME280;74889;52.240;20.902;2024-01-15T01:07:36;97843.79;;;1.82;84.92
84661;BME280;74889;52.240;20.902;2024-01-15T01:10:01;97841.66;;;1.80;84.66
84661;BME280;74889;52.240;20.902;2024-01-15T01:12:27;97838.94;;;1.80;84.96
84661;BME280;74889;52.240;20.902;2024-01-15T01:14:54;97836.83;;;1.79;84.74
84661;BME280;74889;52.240;20.902;2024-01-15T01:17:19;97832.77;;;1.79;84.54
84661;BME280;74889;52.240;20.902;2024-01-15T01:19:45;97827.62;;;1.80;84.73
84661;BME280;74889;52.240;20.902;2024-01-15T01:22:10;97833.65;;;1.79;85.10
84661;BME280;74889;52.240;20.902;2024-01-15T01:24:36;97832.63;;;1.79;84.89
84661;BME280;74889;52.240;20.902;2024-01-15T01:27:02;97833.38;;;1.79;84.67
84661;BME280;74889;52.240;20.902;2024-01-15T01:29:27;97830.34;;;1.78;85.17
84661;BME280;74889;52.240;20.902;2024-01-15T01:31:53;97826.24;;;1.76;85.03
84661;BME280;74889;52.240;20.902;2024-01-15T01:34:18;97825.77;;;1.76;84.97
84661;BME280;74889;52.240;20.902;2024-01-15T01:36:44;97824.00;;;1.74;84.91
84661;BME280;74889;52.240;20.902;2024-01-15T01:39:09;97822.67;;;1.73;84.98
84661;BME280;74889;52.240;20.902;2024-01-15T01:41:35;97816.80;;;1.72;84.79
84661;BME280;74889;52.240;20.902;2024-01-15T01:44:00;97810.17;;;1.71;85.04
84661;BME280;74889;52.240;20.902;2024-01-15T01:46:27;97806.65;;;1.72;85.23
84661;BME280;74889;52.240;20.902;2024-01-15T01:48:55;97798.16;;;1.72;85.00
84661;BME280;74889;52.240;20.902;2024-01-15T01:51:23;97788.08;;;1.70;84.98
84661;BME280;74889;52.240;20.902;2024-01-15T01:53:50;97786.56;;;1.70;85.15
84661;BME280;74889;52.240;20.902;2024-01-15T01:56:16;97789.27;;;1.71;85.27
84661;BME280;74889;52.240;20.902;2024-01-15T01:58:44;97790.80;;;1.72;85.26
84661;BME280;74889;52.240;20.902;2024-01-15T02:01:11;97786.93;;;1.71;85.20
84661;BME280;74889;52.240;20.902;2024-01-15T02:03:39;97787.11;;;1.71;85.13
84661;BME280;74889;52.240;20.902;2024-01-15T02:06:05;97781.26;;;1.72;85.21
84661;BME280;74889;52.240;20.902;2024-01-15T02:08:31;97782.22;;;1.73;85.08
84661;BME280;74889;52.240;20.902;2024-01-15T02:10:57;97780.05;;;1.73;85.12
84661;BME280;74889;52.240;20.902;2024-01-15T02:13:22;97778.36;;;1.72;85.18
84661;BME280;74889;52.240;20.902;2024-01-15T02:15:48;97770.50;;;1.72;85.05
84661;BME280;74889;52.240;20.902;2024-01-15T02:18:13;97766.17;;;1.73;85.33
84661;BME280;74889;52.240;20.902;2024-01-15T02:20:39;97762.63;;;1.73;85.02
84661;BME280;74889;52.240;20.902;2024-01-15T02:23:13;97759.80;;;1.73;85.16
84661;BME280;74889;52.240;20.902;2024-01-15T02:25:40;97749.22;;;1.73;85.30
84661;BME280;74889;52.240;20.902;2024-01-15T02:28:09;97750.71;;;1.72;85.04
84661;BME280;74889;52.240;20.902;2024-01-15T02:30:39;97746.02;;;1.72;85.12
84661;BME280;74889;52.240;20.902;2024-01-15T02:33:06;97741.42;;;1.72;85.31
84661;BME280;74889;52.240;20.902;2024-01-15T02:35:32;97740.98;;;1.73;85.02
84661;BME280;74889;52.240;20.902;2024-01-15T02:37:58;97740.38;;;1.72;85.10
84661;BME280;74889;52.240;20.902;2024-01-15T02:40:24;97739.45;;;1.72;85.11
84661;BME280;74889;52.240;20.902;2024-01-15T02:42:49;97733.54;;;1.73;84.97
84661;BME280;74889;52.240;20.902;2024-01-15T02:45:15;97730.90;;;1.73;85.09
84661;BME280;74889;52.240;20.902;2024-01-15T02:47:40;97729.58;;;1.72;84.89
84661;BME280;74889;52.240;20.902;2024-01-15T02:50:06;97720.39;;;1.73;84.81
84661;BME280;74889;52.240;20.902;2024-01-15T02:52:32;97714.11;;;1.72;84.94
84661;BME280;74889;52.240;20.902;2024-01-15T02:54:57;97717.54;;;1.73;84.69
84661;BME280;74889;52.240;20.902;2024-01-15T02:57:23;97706.73;;;1.72;84.76
84661;BME280;74889;52.240;20.902;2024-01-15T02:59:48;97695.69;;;1.71;85.04
84661;BME280;74889;52.240;20.902;2024-01-15T03:02:14;97692.17;;;1.71;84.86
84661;BME280;74889;52.240;20.902;2024-01-15T03:04:43;97684.90;;;1.72;84.98
84661;BME280;74889;52.240;20.902;2024-01-15T03:07:09;97683.01;;;1.71;84.74
84661;BME280;74889;52.240;20.902;2024-01-15T03:09:34;97675.61;;;1.72;84.75
84661;BME280;74889;52.240;20.902;2024-01-15T03:12:00;97673.27;;;1.72;84.84
84661;BME280;74889;52.240;20.902;2024-01-15T03:14:25;97668.57;;;1.71;85.02
84661;BME280;74889;52.240;20.902;2024-01-15T03:16:52;97665.79;;;1.71;84.86
84661;BME280;74889;52.240;20.902;2024-01-15T03:19:18;97663.55;;;1.71;84.89
84661;BME280;74889;52.240;20.902;2024-01-15T03:21:43;97667.08;;;1.70;84.67
84661;BME280;74889;52.240;20.902;2024-01-15T03:24:08;97664.54;;;1.71;85.20
84661;BME280;74889;52.240;20.902;2024-01-15T03:26:34;97663.21;;;1.70;84.92
84661;BME280;74889;52.240;20.902;2024-01-15T03:28:59;97659.02;;;1.68;85.06
84661;BME280;74889;52.240;20.902;2024-01-15T03:31:25;97656.17;;;1.67;84.93
84661;BME280;74889;52.240;20.902;2024-01-15T03:33:51;97651.48;;;1.66;85.06
84661;BME280;74889;52.240;20.902;2024-01-15T03:36:16;97647.77;;;1.65;85.01
84661;BME280;74889;52.240;20.902;2024-01-15T03:38:42;97642.61;;;1.65;85.11
84661;BME280;74889;52.240;20.902;2024-01-15T03:41:08;97644.89;;;1.64;85.03
84661;BME280;74889;52.240;20.902;2024-01-15T03:43:33;97641.34;;;1.64;85.22
84661;BME280;74889;52.240;20.902;2024-01-15T03:45:59;97637.39;;;1.64;84.90
84661;BME280;74889;52.240;20.902;2024-01-15T03:48:24;97635.45;;;1.65;84.96
84661;BME280;74889;52.240;20.902;2024-01-15T03:50:50;97630.98;;;1.65;84.93
84661;BME280;74889;52.240;20.902;2024-01-15T03:53:15;97627.56;;;1.66;85.18
84661;BME280;74889;52.240;20.902;2024-01-15T03:55:42;97633.41;;;1.66;84.91
84661;BME280;74889;52.240;20.902;2024-01-15T03:58:07;97624.29;;;1.65;84.86
84661;BME280;74889;52.240;20.902;2024-01-15T04:00:33;97618.11;;;1.63;84.84
84661;BME280;74889;52.240;20.902;2024-01-15T04:02:59;97616.82;;;1.62;84.78
84661;BME280;74889;52.240;20.902;2024-01-15T04:05:25;97613.28;;;1.61;85.22
84661;BME280;74889;52.240;20.902;2024-01-15T04:07:51;97610.25;;;1.61;84.87
84661;BME280;74889;52.240;20.902;2024-01-15T04:10:17;97603.98;;;1.62;84.72
84661;BME280;74889;52.240;20.902;2024-01-15T04:12:42;97599.05;;;1.62;85.03
84661;BME280;74889;52.240;20.902;2024-01-15T04:15:08;97595.79;;;1.63;84.79
84661;BME280;74889;52.240;20.902;2024-01-15T04:17:33;97581.92;;;1.63;84.81
84661;BME280;74889;52.240;20.902;2024-01-15T04:19:59;97580.92;;;1.62;85.10
84661;BME280;74889;52.240;20.902;2024-01-15T04:22:25;97575.90;;;1.63;84.86
84661;BME280;74889;52.240;20.902;2024-01-15T04:24:51;97569.70;;;1.63;84.83
84661;BME280;74889;52.240;20.902;2024-01-15T04:27:16;97564.52;;;1.64;85.06
84661;BME280;74889;52.240;20.902;2024-01-15T04:29:42;97563.54;;;1.65;84.88
84661;BME280;74889;52.240;20.902;2024-01-15T04:32:09;97555.31;;;1.65;84.85
84661;BME280;74889;52.240;20.902;2024-01-15T04:34:35;97551.60;;;1.65;84.63
84661;BME280;74889;52.240;20.902;2024-01-15T04:37:01;97549.80;;;1.65;84.91
84661;BME280;74889;52.240;20.902;2024-01-15T04:39:26;97547.19;;;1.65;84.53
84661;BME280;74889;52.240;20.902;2024-01-15T04:41:52;97542.46;;;1.63;84.65
84661;BME280;74889;52.240;20.902;2024-01-15T04:44:18;97542.89;;;1.62;84.50
84661;BME280;74889;52.240;20.902;2024-01-15T04:46:43;97543.33;;;1.61;84.57
84661;BME280;74889;52.240;20.902;2024-01-15T04:49:09;97541.96;;;1.63;84.48
84661;BME280;74889;52.240;20.902;2024-01-15T04:51:35;97537.15;;;1.63;84.63
84661;BME280;74889;52.240;20.902;2024-01-15T04:54:01;97539.30;;;1.64;84.36
84661;BME280;74889;52.240;20.902;2024-01-15T04:56:26;97543.92;;;1.66;84.49
84661;BME280;74889;52.240;20.902;2024-01-15T04:58:52;97538.27;;;1.66;84.46
84661;BME280;74889;52.240;20.902;2024-01-15T05:01:17;97538.05;;;1.66;84.38
84661;BME280;74889;52.240;20.902;2024-01-15T05:03:43;97534.15;;;1.67;84.36
84661;BME280;74889;52.240;20.902;2024-01-15T05:06:08;97537.28;;;1.67;84.34
84661;BME280;74889;52.240;20.902;2024-01-15T05:08:34;97532.08;;;1.66;84.29
84661;BME280;74889;52.240;20.902;2024-01-15T05:11:00;97538.34;;;1.65;84.50
84661;BME280;74889;52.240;20.902;2024-01-15T05:13:25;97531.73;;;1.64;84.28
84661;BME280;74889;52.240;20.902;2024-01-15T05:15:51;97524.90;;;1.64;84.43
84661;BME280;74889;52.240;20.902;2024-01-15T05:18:17;97520.35;;;1.64;84.09
84661;BME280;74889;52.240;20.902;2024-01-15T05:20:42;97518.92;;;1.64;84.09
84661;BME280;74889;52.240;20.902;2024-01-15T05:23:08;97521.50;;;1.65;84.15
84661;BME280;74889;52.240;20.902;2024-01-15T05:25:33;97517.63;;;1.64;84.11
84661;BME280;74889;52.240;20.902;2024-01-15T05:27:59;97514.17;;;1.64;84.15
84661;BME280;74889;52.240;20.902;2024-01-15T05:30:24;97517.57;;;1.63;83.93
84661;BME280;74889;52.240;20.902;2024-01-15T05:32:50;97515.20;;;1.63;83.88
84661;BME280;74889;52.240;20.902;2024-01-15T05:35:16;97517.00;;;1.62;84.16
84661;BME280;74889;52.240;20.902;2024-01-15T05:37:43;97511.10;;;1.63;84.02
84661;BME280;74889;52.240;20.902;2024-01-15T05:40:13;97514.84;;;1.64;84.10
84661;BME280;74889;52.240;20.902;2024-01-15T05:42:40;97510.73;;;1.65;84.04
84661;BME280;74889;52.240;20.902;2024-01-15T05:45:06;97509.97;;;1.65;84.10
84661;BME280;74889;52.240;20.902;2024-01-15T05:47:31;97512.81;;;1.67;84.05
84661;BME280;74889;52.240;20.902;2024-01-15T05:49:57;97513.19;;;1.67;83.94
84661;BME280;74889;52.240;20.902;2024-01-15T05:52:23;97510.88;;;1.67;83.93
84661;BME280;74889;52.240;20.902;2024-01-15T05:54:49;97503.09;;;1.67;84.01
84661;BME280;74889;52.240;20.902;2024-01-15T05:57:15;97506.39;;;1.69;84.08
84661;BME280;74889;52.240;20.902;2024-01-15T05:59:42;97505.98;;;1.70;83.97
84661;BME280;74889;52.240;20.902;2024-01-15T06:02:08;97495.32;;;1.69;84.08
84661;BME280;74889;52.240;20.902;2024-01-15T06:04:33;97490.64;;;1.68;83.85
84661;BME280;74889;52.240;20.902;2024-01-15T06:06:59;97493.27;;;1.68;83.84
84661;BME280;74889;52.240;20.902;2024-01-15T06:09:25;97491.62;;;1.69;83.68
84661;BME280;74889;52.240;20.902;2024-01-15T06:11:50;97485.61;;;1.69;83.58
84661;BME280;74889;52.240;20.902;2024-01-15T06:14:16;97480.79;;;1.68;83.78
84661;BME280;74889;52.240;20.902;2024-01-15T06:16:41;97478.02;;;1.66;83.78
84661;BME280;74889;52.240;20.902;2024-01-15T06:19:07;97473.92;;;1.66;83.77
84661;BME280;74889;52.240;20.902;2024-01-15T06:21:32;97471.70;;;1.67;84.06
84661;BME280;74889;52.240;20.902;2024-01-15T06:23:58;97474.33;;;1.68;83.62
84661;BME280;74889;52.240;20.902;2024-01-15T06:26:23;97479.63;;;1.67;83.77
84661;BME280;74889;52.240;20.902;2024-01-15T06:28:50;97476.08;;;1.66;83.56
84661;BME280;74889;52.240;20.902;2024-01-15T06:31:15;97477.70;;;1.66;83.57
84661;BME280;74889;52.240;20.902;2024-01-15T06:33:41;97474.19;;;1.66;83.58
84661;BME280;74889;52.240;20.902;2024-01-15T06:36:07;97469.73;;;1.65;83.50
84661;BME280;74889;52.240;20.902;2024-01-15T06:38:33;97463.71;;;1.65;83.75
84661;BME280;74889;52.240;20.902;2024-01-15T06:40:58;97457.02;;;1.66;83.82
84661;BME280;74889;52.240;20.902;2024-01-15T06:43:24;97455.86;;;1.66;83.87
84661;BME280;74889;52.240;20.902;2024-01-15T06:45:50;97460.02;;;1.63;83.71
84661;BME280;74889;52.240;20.902;2024-01-15T06:48:15;97457.19;;;1.63;83.64
84661;BME280;74889;52.240;20.902;2024-01-15T06:50:42;97462.58;;;1.63;83.66
84661;BME280;74889;52.240;20.902;2024-01-15T06:53:08;97462.00;;;1.64;83.75
84661;BME280;74889;52.240;20.902;2024-01-15T06:55:34;97463.84;;;1.65;83.48
84661;BME280;74889;52.240;20.902;2024-01-15T06:57:59;97466.96;;;1.66;83.70
84661;BME280;74889;52.240;20.902;2024-01-15T07:00:25;97469.83;;;1.67;83.52
84661;BME280;74889;52.240;20.902;2024-01-15T07:02:51;97465.44;;;1.67;83.51
84661;BME280;74889;52.240;20.902;2024-01-15T07:05:17;97470.00;;;1.67;83.47
84661;BME280;74889;52.240;20.902;2024-01-15T07:07:43;97469.66;;;1.67;83.51
84661;BME280;74889;52.240;20.902;2024-01-15T07:10:08;97467.09;;;1.66;83.33
84661;BME280;74889;52.240;20.902;2024-01-15T07:12:34;97466.03;;;1.65;83.38
84661;BME280;74889;52.240;20.902;2024-01-15T07:15:00;97465.14;;;1.65;83.51
84661;BME280;74889;52.240;20.902;2024-01-15T07:17:25;97465.96;;;1.65;83.35
84661;BME280;74889;52.240;20.902;2024-01-15T07:19:51;97466.66;;;1.65;83.40
84661;BME280;74889;52.240;20.902;2024-01-15T07:22:17;97462.33;;;1.65;83.41
84661;BME280;74889;52.240;20.902;2024-01-15T07:24:43;97466.69;;;1.65;83.20
84661;BME280;74889;52.240;20.902;2024-01-15T07:27:09;97466.19;;;1.65;83.04
84661;BME280;74889;52.240;20.902;2024-01-15T07:29:35;97467.35;;;1.65;83.29
84661;BME280;74889;52.240;20.902;2024-01-15T07:32:04;97467.55;;;1.65;83.37
84661;BME280;74889;52.240;20.902;2024-01-15T07:34:29;97466.69;;;1.63;83.42
84661;BME280;74889;52.240;20.902;2024-01-15T07:36:55;97471.30;;;1.63;83.32
84661;BME280;74889;52.240;20.902;2024-01-15T07:39:21;97467.64;;;1.63;83.43
84661;BME280;74889;52.240;20.902;2024-01-15T07:41:48;97475.02;;;1.63;83.35
84661;BME280;74889;52.240;20.902;2024-01-15T07:44:14;97482.59;;;1.63;83.44
84661;BME280;74889;52.240;20.902;2024-01-15T07:46:44;97477.95;;;1.62;83.68
84661;BME280;74889;52.240;20.902;2024-01-15T07:49:09;97475.77;;;1.59;83.39
84661;BME280;74889;52.240;20.902;2024-01-15T07:51:35;97477.61;;;1.58;83.57
84661;BME280;74889;52.240;20.902;2024-01-15T07:54:00;97475.73;;;1.58;83.35
84661;BME280;74889;52.240;20.902;2024-01-15T07:56:26;97476.71;;;1.57;83.71
84661;BME280;74889;52.240;20.902;2024-01-15T07:58:53;97482.11;;;1.58;83.40
84661;BME280;74889;52.240;20.902;2024-01-15T08:01:18;97481.64;;;1.57;83.29
84661;BME280;74889;52.240;20.902;2024-01-15T08:03:44;97488.04;;;1.57;83.36
84661;BME280;74889;52.240;20.902;2024-01-15T08:06:10;97489.89;;;1.56;83.65
84661;BME280;74889;52.240;20.902;2024-01-15T08:08:36;97492.31;;;1.54;83.62
84661;BME280;74889;52.240;20.902;2024-01-15T08:11:02;97489.66;;;1.54;83.70
84661;BME280;74889;52.240;20.902;2024-01-15T08:13:28;97479.96;;;1.53;83.79
84661;BME280;74889;52.240;20.902;2024-01-15T08:15:53;97480.59;;;1.52;83.82
84661;BME280;74889;52.240;20.902;2024-01-15T08:18:19;97481.33;;;1.52;84.07
84661;BME280;74889;52.240;20.902;2024-01-15T08:20:48;97483.00;;;1.52;84.18
84661;BME280;74889;52.240;20.902;2024-01-15T08:23:13;97481.91;;;1.52;84.08
84661;BME280;74889;52.240;20.902;2024-01-15T08:25:39;97482.30;;;1.54;84.14
84661;BME280;74889;52.240;20.902;2024-01-15T08:28:04;97480.80;;;1.55;83.78
84661;BME280;74889;52.240;20.902;2024-01-15T08:30:30;97482.21;;;1.56;84.04
84661;BME280;74889;52.240;20.902;2024-01-15T08:32:56;97487.45;;;1.59;83.76
84661;BME280;74889;52.240;20.902;2024-01-15T08:35:22;97488.09;;;1.61;83.91
84661;BME280;74889;52.240;20.902;2024-01-15T08:37:57;97487.83;;;1.63;83.55
84661;BME280;74889;52.240;20.902;2024-01-15T08:40:23;97488.42;;;1.66;83.61
84661;BME280;74889;52.240;20.902;2024-01-15T08:42:49;97488.23;;;1.70;83.81
84661;BME280;74889;52.240;20.902;2024-01-15T08:45:15;97488.48;;;1.71;83.55
84661;BME280;74889;52.240;20.902;2024-01-15T08:47:40;97492.35;;;1.71;83.58
84661;BME280;74889;52.240;20.902;2024-01-15T08:50:07;97490.20;;;1.69;83.25
84661;BME280;74889;52.240;20.902;2024-01-15T08:52:36;97492.10;;;1.68;83.17
84661;BME280;74889;52.240;20.902;2024-01-15T08:55:01;97485.95;;;1.68;83.61
84661;BME280;74889;52.240;20.902;2024-01-15T08:57:27;97492.16;;;1.68;83.18
84661;BME280;74889;52.240;20.902;2024-01-15T08:59:52;97494.23;;;1.68;83.45
84661;BME280;74889;52.240;20.902;2024-01-15T09:02:19;97496.45;;;1.70;83.50
84661;BME280;74889;52.240;20.902;2024-01-15T09:04:46;97503.67;;;1.72;83.61
84661;BME280;74889;52.240;20.902;2024-01-15T09:07:11;97508.63;;;1.73;83.79
84661;BME280;74889;52.240;20.902;2024-01-15T09:09:37;97502.16;;;1.74;83.54
84661;BME280;74889;52.240;20.902;2024-01-15T09:12:02;97501.39;;;1.77;83.59
84661;BME280;74889;52.240;20.902;2024-01-15T09:14:28;97506.93;;;1.79;83.53
84661;BME280;74889;52.240;20.902;2024-01-15T09:16:55;97510.36;;;1.81;83.69
84661;BME280;74889;52.240;20.902;2024-01-15T09:19:22;97501.05;;;1.86;83.57
84661;BME280;74889;52.240;20.902;2024-01-15T09:21:47;97500.15;;;1.90;83.49
84661;BME280;74889;52.240;20.902;2024-01-15T09:24:13;97499.13;;;1.92;83.28
84661;BME280;74889;52.240;20.902;2024-01-15T09:26:39;97485.38;;;1.94;82.92
84661;BME280;74889;52.240;20.902;2024-01-15T09:29:04;97492.85;;;1.97;82.60
84661;BME280;74889;52.240;20.902;2024-01-15T09:31:30;97492.09;;;1.99;82.45
84661;BME280;74889;52.240;20.902;2024-01-15T09:33:55;97488.71;;;1.99;82.27
84661;BME280;74889;52.240;20.902;2024-01-15T09:36:25;97484.10;;;2.00;82.08
84661;BME280;74889;52.240;20.902;2024-01-15T09:38:51;97485.36;;;2.01;82.31
84661;BME280;74889;52.240;20.902;2024-01-15T09:41:16;97489.35;;;2.01;82.23
84661;BME280;74889;52.240;20.902;2024-01-15T09:43:42;97488.55;;;2.04;81.74
84661;BME280;74889;52.240;20.902;2024-01-15T09:46:08;97491.53;;;2.04;81.43
84661;BME280;74889;52.240;20.902;2024-01-15T09:48:34;97489.35;;;2.05;81.25
84661;BME280;74889;52.240;20.902;2024-01-15T09:51:01;97484.66;;;2.06;81.04
84661;BME280;74889;52.240;20.902;2024-01-15T09:53:27;97487.95;;;2.06;81.15
84661;BME280;74889;52.240;20.902;2024-01-15T09:55:53;97485.13;;;2.06;81.02
84661;BME280;74889;52.240;20.902;2024-01-15T09:58:19;97486.54;;;2.08;80.64
84661;BME280;74889;52.240;20.902;2024-01-15T10:00:48;97480.52;;;2.07;80.56
84661;BME280;74889;52.240;20.902;2024-01-15T10:03:15;97472.74;;;2.07;80.16
84661;BME280;74889;52.240;20.902;2024-01-15T10:05:42;97480.64;;;2.08;80.12
84661;BME280;74889;52.240;20.902;2024-01-15T10:08:09;97475.55;;;2.10;80.22
84661;BME280;74889;52.240;20.902;2024-01-15T10:10:36;97469.98;;;2.11;79.77
84661;BME280;74889;52.240;20.902;2024-01-15T10:13:03;97467.48;;;2.11;79.49
84661;BME280;74889;52.240;20.902;2024-01-15T10:15:34;97468.08;;;2.12;79.20
84661;BME280;74889;52.240;20.902;2024-01-15T10:18:02;97465.59;;;2.12;78.95
84661;BME280;74889;52.240;20.902;2024-01-15T10:20:28;97474.09;;;2.13;79.14
84661;BME280;74889;52.240;20.902;2024-01-15T10:22:55;97469.14;;;2.14;78.88
84661;BME280;74889;52.240;20.902;2024-01-15T10:25:20;97467.68;;;2.14;78.75
84661;BME280;74889;52.240;20.902;2024-01-15T10:28:04;97475.88;;;2.15;78.67
84661;BME280;74889;52.240;20.902;2024-01-15T10:30:32;97472.67;;;2.14;78.76
84661;BME280;74889;52.240;20.902;2024-01-15T10:32:59;97476.67;;;2.12;78.49
84661;BME280;74889;52.240;20.902;2024-01-15T10:35:32;97474.63;;;2.12;78.44
84661;BME280;74889;52.240;20.902;2024-01-15T10:38:01;97468.84;;;2.12;78.45
84661;BME280;74889;52.240;20.902;2024-01-15T10:40:28;97468.21;;;2.11;78.36
84661;BME280;74889;52.240;20.902;2024-01-15T10:42:54;97466.27;;;2.09;78.37
84661;BME280;74889;52.240;20.902;2024-01-15T10:45:21;97472.41;;;2.10;78.35
84661;BME280;74889;52.240;20.902;2024-01-15T10:47:47;97476.70;;;2.11;78.49
84661;BME280;74889;52.240;20.902;2024-01-15T10:50:14;97474.69;;;2.11;78.38
84661;BME280;74889;52.240;20.902;2024-01-15T10:52:41;97473.70;;;2.11;78.22
84661;BME280;74889;52.240;20.902;2024-01-15T10:55:09;97473.92;;;2.12;78.30
84661;BME280;74889;52.240;20.902;2024-01-15T10:57:36;97471.19;;;2.11;78.49
84661;BME280;74889;52.240;20.902;2024-01-15T11:00:03;97473.00;;;2.11;78.25
84661;BME280;74889;52.240;20.902;2024-01-15T11:02:35;97474.86;;;2.11;78.55
84661;BME280;74889;52.240;20.902;2024-01-15T11:05:01;97474.19;;;2.11;78.43
84661;BME280;74889;52.240;20.902;2024-01-15T11:07:29;97470.42;;;2.10;78.52
84661;BME280;74889;52.240;20.902;2024-01-15T11:09:55;97472.93;;;2.13;78.69
84661;BME280;74889;52.240;20.902;2024-01-15T11:12:23;97469.34;;;2.14;78.34
84661;BME280;74889;52.240;20.902;2024-01-15T11:14:49;97465.56;;;2.13;78.10
84661;BME280;74889;52.240;20.902;2024-01-15T11:17:17;97465.77;;;2.12;78.31
84661;BME280;74889;52.240;20.902;2024-01-15T11:19:47;97458.70;;;2.13;78.24
84661;BME280;74889;52.240;20.902;2024-01-15T11:25:22;97456.48;;;2.13;78.41
84661;BME280;74889;52.240;20.902;2024-01-15T11:27:50;97452.25;;;2.15;78.49
84661;BME280;74889;52.240;20.902;2024-01-15T11:30:17;97451.48;;;2.15;78.22
84661;BME280;74889;52.240;20.902;2024-01-15T11:32:43;97452.91;;;2.16;77.99
84661;BME280;74889;52.240;20.902;2024-01-15T11:35:10;97446.73;;;2.16;77.84
84661;BME280;74889;52.240;20.902;2024-01-15T11:40:18;97446.82;;;2.18;78.09
84661;BME280;74889;52.240;20.902;2024-01-15T11:42:45;97444.58;;;2.19;77.60
84661;BME280;74889;52.240;20.902;2024-01-15T11:45:11;97439.09;;;2.19;77.94
84661;BME280;74889;52.240;20.902;2024-01-15T11:48:05;97446.14;;;2.18;77.29
84661;BME280;74889;52.240;20.902;2024-01-15T11:50:34;97446.90;;;2.17;77.16
84661;BME280;74889;52.240;20.902;2024-01-15T11:53:02;97443.20;;;2.17;77.44
84661;BME280;74889;52.240;20.902;2024-01-15T11:55:38;97436.94;;;2.16;77.55
84661;BME280;74889;52.240;20.902;2024-01-15T11:58:08;97441.15;;;2.17;77.57
84661;BME280;74889;52.240;20.902;2024-01-15T12:00:39;97439.46;;;2.18;77.59
84661;BME280;74889;52.240;20.902;2024-01-15T12:03:05;97439.63;;;2.18;77.81
84661;BME280;74889;52.240;20.902;2024-01-15T12:05:31;97433.24;;;2.16;77.67
84661;BME280;74889;52.240;20.902;2024-01-15T12:07:56;97432.20;;;2.16;77.99
84661;BME280;74889;52.240;20.902;2024-01-15T12:10:22;97431.33;;;2.16;77.73
84661;BME280;74889;52.240;20.902;2024-01-15T12:12:59;97434.87;;;2.16;77.82
84661;BME280;74889;52.240;20.902;2024-01-15T12:15:26;97432.78;;;2.16;77.61
84661;BME280;74889;52.240;20.902;2024-01-15T12:17:54;97427.08;;;2.15;77.64
84661;BME280;74889;52.240;20.902;2024-01-15T12:20:20;97428.78;;;2.14;77.71
84661;BME280;74889;52.240;20.902;2024-01-15T12:22:47;97420.73;;;2.13;77.68
84661;BME280;74889;52.240;20.902;2024-01-15T12:25:13;97423.73;;;2.15;77.97
84661;BME280;74889;52.240;20.902;2024-01-15T12:27:38;97404.56;;;2.14;77.99
84661;BME280;74889;52.240;20.902;2024-01-15T12:30:04;97413.71;;;2.15;77.79
84661;BME280;74889;52.240;20.902;2024-01-15T12:32:30;97424.40;;;2.12;78.13
84661;BME280;74889;52.240;20.902;2024-01-15T12:34:57;97424.63;;;2.10;78.08
84661;BME280;74889;52.240;20.902;2024-01-15T12:37:23;97424.02;;;2.07;78.41
84661;BME280;74889;52.240;20.902;2024-01-15T12:39:49;97420.20;;;2.02;78.77
84661;BME280;74889;52.240;20.902;2024-01-15T12:42:16;97412.65;;;1.99;78.97
84661;BME280;74889;52.240;20.902;2024-01-15T12:44:42;97419.73;;;1.95;78.87
84661;BME280;74889;52.240;20.902;2024-01-15T12:47:08;97419.19;;;1.92;79.10
84661;BME280;74889;52.240;20.902;2024-01-15T12:49:38;97417.20;;;1.89;79.13
84661;BME280;74889;52.240;20.902;2024-01-15T12:52:09;97417.06;;;1.87;79.56
84661;BME280;74889;52.240;20.902;2024-01-15T12:54:35;97421.27;;;1.86;79.49
84661;BME280;74889;52.240;20.902;2024-01-15T12:57:00;97425.83;;;1.86;79.69
84661;BME280;74889;52.240;20.902;2024-01-15T12:59:27;97428.11;;;1.86;79.53
84661;BME280;74889;52.240;20.902;2024-01-15T13:01:53;97425.98;;;1.87;79.68